Time;durP1;ratioP1;P1;durP2;ratioP2;P2;SDS_P1;SDS_P2;PMS_P1;PMS_P2;Temp;Humidity;BMP_temperature;BMP_pressure;BME280_temperature;BME280_humidity;BME280_pressure;Samples;Min_cycle;Max_cycle;Signal;HPM_P1;HPM_P2
2023/10/09 00:02:18;;;;;;;4.43;4.17;;;10.70;70.30;;;;;;6278015;28;20240;-84
2023/10/09 00:05:38;;;;;;;4.20;4.10;;;10.70;70.70;;;;;;6279481;28;20241;-82
2023/10/09 00:08:44;;;;;;;4.53;4.33;;;10.60;71.10;;;;;;6288148;28;20285;-82
2023/10/09 00:11:48;;;;;;;3.90;3.80;;;10.60;71.20;;;;;;6290015;28;20233;-80
2023/10/09 00:14:55;;;;;;;4.77;4.47;;;10.60;71.40;;;;;;6289444;28;20255;-82
2023/10/09 00:17:59;;;;;;;4.57;4.37;;;10.60;71.90;;;;;;6290190;28;20245;-84
2023/10/09 00:21:11;;;;;;;4.73;4.40;;;10.50;72.20;;;;;;6291147;28;20233;-84
2023/10/09 00:24:17;;;;;;;4.57;4.27;;;10.50;72.40;;;;;;6289918;28;20234;-81
2023/10/09 00:27:21;;;;;;;3.80;3.70;;;10.50;72.90;;;;;;6290624;28;20236;-83
2023/10/09 00:30:29;;;;;;;4.93;4.40;;;10.50;73.10;;;;;;6288387;28;20271;-82
2023/10/09 00:33:33;;;;;;;4.67;4.47;;;10.50;73.60;;;;;;6282709;28;20257;-83
2023/10/09 00:36:49;;;;;;;4.33;4.03;;;10.40;74.00;;;;;;6290576;28;20728;-83
2023/10/09 00:39:56;;;;;;;3.73;3.63;;;10.40;74.40;;;;;;6280815;28;20232;-82
2023/10/09 00:43:05;;;;;;;4.10;3.90;;;10.40;74.60;;;;;;6290284;28;20229;-81
2023/10/09 00:46:23;;;;;;;4.33;4.03;;;10.30;74.90;;;;;;6276713;28;20245;-82
2023/10/09 00:49:31;;;;;;;5.80;5.30;;;10.30;75.10;;;;;;6275587;28;20568;-82
2023/10/09 00:52:37;;;;;;;4.57;4.37;;;10.20;75.30;;;;;;6284267;28;20334;-81
2023/10/09 00:55:45;;;;;;;4.40;4.20;;;10.30;75.60;;;;;;6284970;28;20250;-78
2023/10/09 00:58:55;;;;;;;4.43;4.23;;;10.20;75.90;;;;;;6289718;28;20237;-82
2023/10/09 01:02:04;;;;;;;4.43;4.20;;;10.20;75.90;;;;;;6281510;28;20393;-80
2023/10/09 01:05:19;;;;;;;4.00;3.90;;;10.20;76.20;;;;;;6286446;28;20237;-83
2023/10/09 01:08:29;;;;;;;4.33;4.13;;;10.20;76.20;;;;;;6289951;28;20234;-82
2023/10/09 01:11:34;;;;;;;4.50;4.40;;;10.10;76.50;;;;;;6289477;28;20241;-83
2023/10/09 01:14:40;;;;;;;4.43;4.23;;;10.10;76.70;;;;;;6290200;28;20237;-82
2023/10/09 01:17:46;;;;;;;4.37;4.27;;;10.10;76.80;;;;;;6283093;28;20244;-83
2023/10/09 01:20:50;;;;;;;4.10;3.93;;;10.10;76.90;;;;;;6288495;28;20627;-81
2023/10/09 01:24:03;;;;;;;4.60;4.40;;;10.00;77.10;;;;;;6285523;28;20237;-80
2023/10/09 01:27:14;;;;;;;4.60;4.27;;;10.00;77.50;;;;;;6289254;28;20233;-81
2023/10/09 01:30:20;;;;;;;4.87;4.47;;;10.00;77.40;;;;;;6282526;28;20245;-78
2023/10/09 01:33:27;;;;;;;4.60;4.20;;;9.80;77.40;;;;;;6288363;28;20241;-82
2023/10/09 01:36:32;;;;;;;4.27;4.00;;;9.80;77.60;;;;;;6274732;28;20636;-81
2023/10/09 01:39:41;;;;;;;4.90;4.50;;;9.70;77.70;;;;;;6283891;28;20255;-82
2023/10/09 01:42:45;;;;;;;4.30;3.93;;;9.70;78.00;;;;;;6291952;28;20243;-79
2023/10/09 01:45:51;;;;;;;3.90;3.80;;;9.70;78.00;;;;;;6279151;28;20250;-82
2023/10/09 01:48:55;;;;;;;4.37;4.17;;;9.70;77.90;;;;;;6283457;28;20229;-81
2023/10/09 01:52:07;;;;;;;4.47;4.20;;;9.70;78.10;;;;;;6283509;28;20385;-83
2023/10/09 01:55:13;;;;;;;4.03;3.80;;;9.70;78.00;;;;;;6286207;28;20889;-81
2023/10/09 01:58:24;;;;;;;4.17;4.00;;;9.70;78.20;;;;;;6287575;28;20225;-79
2023/10/09 02:01:27;;;;;;;4.80;4.50;;;9.70;78.30;;;;;;6279463;28;20458;-81
2023/10/09 02:04:30;;;;;;;4.40;4.10;;;9.70;78.50;;;;;;6279372;28;20747;-81
2023/10/09 02:07:40;;;;;;;4.43;4.17;;;9.70;78.70;;;;;;6287309;28;20775;-82
2023/10/09 02:10:47;;;;;;;4.43;4.13;;;9.70;79.00;;;;;;6273154;28;20318;-81
2023/10/09 02:14:00;;;;;;;4.10;4.00;;;9.70;79.00;;;;;;6287170;28;20356;-81
2023/10/09 02:17:09;;;;;;;3.80;3.70;;;9.70;78.90;;;;;;6269795;28;20316;-82
2023/10/09 02:20:18;;;;;;;4.57;4.30;;;9.70;79.50;;;;;;6276054;28;20344;-81
2023/10/09 02:23:30;;;;;;;4.83;4.43;;;9.70;79.50;;;;;;6286425;28;20306;-81
2023/10/09 02:27:06;;;;;;;4.30;4.10;;;9.70;79.50;;;;;;6263906;28;20226;-82
2023/10/09 02:30:15;;;;;;;5.77;4.17;;;9.70;79.50;;;;;;6280154;28;20791;-82
2023/10/09 02:33:27;;;;;;;4.30;4.20;;;9.70;79.60;;;;;;6284752;28;20238;-79
2023/10/09 02:36:31;;;;;;;4.87;4.53;;;9.70;79.70;;;;;;6269652;28;20701;-83
2023/10/09 02:39:43;;;;;;;4.60;4.47;;;9.80;79.80;;;;;;6282467;28;21049;-82
2023/10/09 02:42:49;;;;;;;5.07;4.67;;;9.70;79.80;;;;;;6286434;28;20234;-79
2023/10/09 02:45:53;;;;;;;5.00;4.70;;;9.70;80.10;;;;;;6279608;28;20234;-78
2023/10/09 02:48:57;;;;;;;6.13;5.03;;;9.70;80.50;;;;;;6279569;28;20298;-81
2023/10/09 02:52:05;;;;;;;5.53;5.07;;;9.70;81.00;;;;;;6283629;28;20229;-82
2023/10/09 02:55:13;;;;;;;5.90;5.50;;;9.60;81.50;;;;;;6287497;28;20233;-79
2023/10/09 02:58:20;;;;;;;5.40;5.07;;;9.60;81.40;;;;;;6308261;28;20296;-82
2023/10/09 03:01:24;;;;;;;5.50;5.20;;;9.60;81.70;;;;;;6286505;28;20318;-82
2023/10/09 03:04:30;;;;;;;5.67;5.10;;;9.60;81.50;;;;;;6284814;28;20267;-80
2023/10/09 03:07:34;;;;;;;5.33;4.93;;;9.60;81.30;;;;;;6271672;28;20360;-79
2023/10/09 03:10:38;;;;;;;5.53;5.10;;;9.70;81.30;;;;;;6278897;28;20234;-83
2023/10/09 03:13:44;;;;;;;5.67;5.37;;;9.70;81.20;;;;;;6286365;28;20495;-80
2023/10/09 03:16:48;;;;;;;5.37;4.97;;;9.70;81.20;;;;;;6280718;28;20260;-82
2023/10/09 03:19:52;;;;;;;5.13;4.93;;;9.70;81.20;;;;;;6282973;28;20229;-84
2023/10/09 03:22:55;;;;;;;5.03;4.83;;;9.70;81.30;;;;;;6288217;28;20311;-77
2023/10/09 03:25:58;;;;;;;5.10;4.80;;;9.70;81.40;;;;;;6286096;28;20248;-84
2023/10/09 03:29:23;;;;;;;5.73;5.17;;;9.70;81.50;;;;;;6280296;28;20779;-78
2023/10/09 03:32:26;;;;;;;5.57;5.23;;;9.70;81.50;;;;;;6274086;28;20394;-82
2023/10/09 03:35:33;;;;;;;5.67;4.93;;;9.70;81.50;;;;;;6278003;28;20225;-80
2023/10/09 03:38:38;;;;;;;5.17;4.87;;;9.70;81.60;;;;;;6281374;28;20234;-81
2023/10/09 03:41:42;;;;;;;8.03;5.13;;;9.70;81.60;;;;;;6277154;28;20290;-79
2023/10/09 03:44:53;;;;;;;5.70;5.30;;;9.70;81.70;;;;;;6276339;28;20276;-82
2023/10/09 03:48:09;;;;;;;5.33;5.03;;;9.70;81.70;;;;;;6273138;28;20329;-80
2023/10/09 03:51:15;;;;;;;5.67;5.23;;;9.70;81.80;;;;;;6282355;28;20233;-81
2023/10/09 03:54:20;;;;;;;4.90;4.60;;;9.70;81.80;;;;;;6279011;28;20237;-82
2023/10/09 03:57:24;;;;;;;4.93;4.73;;;9.70;81.70;;;;;;6276645;28;20244;-81
2023/10/09 04:00:31;;;;;;;5.13;4.73;;;9.70;81.70;;;;;;6281400;28;20236;-81
2023/10/09 04:03:36;;;;;;;5.37;4.97;;;9.70;81.70;;;;;;6285606;28;20814;-79
2023/10/09 04:06:42;;;;;;;4.60;4.40;;;9.60;81.80;;;;;;6272342;28;20341;-84
2023/10/09 04:09:47;;;;;;;4.87;4.57;;;9.60;81.80;;;;;;6266596;28;20244;-81
2023/10/09 04:12:52;;;;;;;4.37;4.10;;;9.60;81.80;;;;;;6278389;28;20613;-82
2023/10/09 04:15:59;;;;;;;4.23;4.00;;;9.60;81.70;;;;;;6277773;28;20234;-81
2023/10/09 04:19:11;;;;;;;5.13;4.70;;;9.60;81.70;;;;;;6266931;28;20257;-82
2023/10/09 04:22:25;;;;;;;4.37;4.17;;;9.70;81.60;;;;;;6284626;28;20609;-82
2023/10/09 04:25:29;;;;;;;5.10;4.77;;;9.70;81.60;;;;;;6285538;28;20244;-80
2023/10/09 04:28:33;;;;;;;5.17;4.87;;;9.70;81.70;;;;;;6284164;28;20233;-80
2023/10/09 04:31:38;;;;;;;6.07;5.67;;;9.70;81.60;;;;;;6280963;28;20732;-81
2023/10/09 04:34:49;;;;;;;5.53;5.13;;;9.70;81.70;;;;;;6269620;28;20323;-80
2023/10/09 04:38:03;;;;;;;5.23;5.03;;;9.70;81.60;;;;;;6278908;28;20709;-81
2023/10/09 04:41:07;;;;;;;5.10;4.80;;;9.70;81.60;;;;;;6277968;28;20288;-83
2023/10/09 04:44:18;;;;;;;5.67;5.37;;;9.70;81.70;;;;;;6273773;28;20226;-82
2023/10/09 04:47:25;;;;;;;5.17;4.97;;;9.70;81.70;;;;;;6277631;28;20623;-82
2023/10/09 04:50:45;;;;;;;4.73;4.53;;;9.60;81.60;;;;;;6284634;28;20305;-83
2023/10/09 04:53:54;;;;;;;5.27;4.97;;;9.60;81.60;;;;;;6278264;28;20253;-81
2023/10/09 04:56:59;;;;;;;4.80;4.57;;;9.60;81.70;;;;;;6286216;28;20240;-81
2023/10/09 05:00:06;;;;;;;5.77;5.00;;;9.60;81.60;;;;;;6286017;28;20229;-79
2023/10/09 05:03:12;;;;;;;4.83;4.53;;;9.60;81.70;;;;;;6288940;28;20284;-81
2023/10/09 05:06:32;;;;;;;4.87;4.53;;;9.60;81.70;;;;;;6287319;28;20237;-83
2023/10/09 05:09:55;;;;;;;4.97;4.67;;;9.50;81.70;;;;;;6284385;28;20285;-81
2023/10/09 05:12:59;;;;;;;5.37;4.97;;;9.50;81.90;;;;;;6283328;28;20236;-82
2023/10/09 05:16:02;;;;;;;5.10;4.77;;;9.50;81.90;;;;;;6285338;28;20244;-82
2023/10/09 05:19:08;;;;;;;4.93;4.70;;;9.50;81.70;;;;;;6288885;28;20233;-83
2023/10/09 05:25:53;;;;;;;5.93;5.53;;;9.50;81.90;;;;;;6288621;28;20249;-82
2023/10/09 05:28:58;;;;;;;5.70;5.27;;;9.50;81.90;;;;;;6284407;28;20696;-82
2023/10/09 05:32:05;;;;;;;5.23;4.80;;;9.50;81.80;;;;;;6284285;28;20252;-81
2023/10/09 05:35:23;;;;;;;5.43;5.00;;;9.50;81.90;;;;;;6287996;28;20762;-83
2023/10/09 05:38:35;;;;;;;4.97;4.77;;;9.50;82.00;;;;;;6284611;28;20233;-85
2023/10/09 05:41:46;;;;;;;4.97;4.67;;;9.50;81.90;;;;;;6282425;28;20233;-83
2023/10/09 05:51:44;;;;;;;4.97;4.67;;;9.50;81.50;;;;;;6282131;28;20345;-83
2023/10/09 06:04:53;;;;;;;5.50;5.10;;;9.50;81.70;;;;;;6288184;28;20245;-80
2023/10/09 06:08:06;;;;;;;5.47;5.07;;;9.60;81.50;;;;;;6279756;28;20639;-83
2023/10/09 06:11:38;;;;;;;5.13;4.80;;;9.60;81.30;;;;;;6266963;28;20230;-81
2023/10/09 06:14:57;;;;;;;5.10;4.80;;;9.50;81.30;;;;;;6287473;28;20957;-82
2023/10/09 06:18:25;;;;;;;5.00;4.80;;;9.50;81.40;;;;;;6279593;28;20731;-83
2023/10/09 06:24:54;;;;;;;5.20;4.80;;;9.60;81.50;;;;;;6279523;28;20345;-82
2023/10/09 06:27:58;;;;;;;6.17;5.50;;;9.60;81.40;;;;;;6277334;28;20359;-78
2023/10/09 06:31:27;;;;;;;5.33;5.00;;;9.60;81.40;;;;;;6285294;28;20261;-81
2023/10/09 06:34:32;;;;;;;5.43;5.10;;;9.60;81.50;;;;;;6282466;28;20245;-79
2023/10/09 06:37:38;;;;;;;5.53;5.13;;;9.60;81.30;;;;;;6293494;28;20341;-80
2023/10/09 06:44:30;;;;;;;5.73;5.43;;;9.70;81.30;;;;;;6278782;28;20237;-83
2023/10/09 06:47:40;;;;;;;6.90;6.30;;;9.70;81.40;;;;;;6283961;28;20241;-83
2023/10/09 06:50:56;;;;;;;5.73;5.43;;;9.80;81.40;;;;;;6282717;28;20784;-81
2023/10/09 06:54:04;;;;;;;5.80;5.37;;;9.90;81.20;;;;;;6316206;28;20388;-74
2023/10/09 06:57:14;;;;;;;5.73;5.43;;;10.00;81.40;;;;;;6311686;28;20232;-76
2023/10/09 07:03:51;;;;;;;5.27;4.83;;;10.00;80.80;;;;;;6301092;28;20434;-76
2023/10/09 07:06:56;;;;;;;6.17;5.50;;;10.10;80.90;;;;;;6318932;28;20465;-78
2023/10/09 07:13:24;;;;;;;5.60;5.20;;;10.30;80.40;;;;;;6311173;28;20229;-79
2023/10/09 07:16:28;;;;;;;5.27;4.97;;;10.30;80.30;;;;;;6310395;28;20213;-80
2023/10/09 07:19:57;;;;;;;4.97;4.77;;;10.40;80.30;;;;;;6313984;28;20213;-79
2023/10/09 07:23:13;;;;;;;5.23;5.03;;;10.40;79.70;;;;;;6311664;28;20269;-78
2023/10/09 07:26:23;;;;;;;4.73;4.43;;;10.50;79.80;;;;;;6314146;28;20281;-78
2023/10/09 07:29:47;;;;;;;5.23;4.77;;;10.60;79.80;;;;;;6317355;28;20228;-80
2023/10/09 07:32:52;;;;;;;5.03;4.83;;;10.60;79.50;;;;;;6306405;28;20219;-80
2023/10/09 07:35:57;;;;;;;5.67;5.37;;;10.60;79.10;;;;;;6312264;28;20218;-79
2023/10/09 07:39:01;;;;;;;6.17;5.20;;;10.70;79.30;;;;;;6308223;28;20257;-79
2023/10/09 07:42:19;;;;;;;5.77;5.20;;;10.80;79.00;;;;;;6304067;28;20273;-80
2023/10/09 07:48:52;;;;;;;5.33;4.90;;;10.80;78.40;;;;;;6304153;28;20413;-79
2023/10/09 07:51:58;;;;;;;5.20;4.90;;;10.80;78.60;;;;;;6308759;28;20224;-79
2023/10/09 07:55:14;;;;;;;4.77;4.57;;;10.80;78.70;;;;;;6317880;28;20217;-79
2023/10/09 07:58:24;;;;;;;5.33;4.93;;;10.90;78.40;;;;;;6310740;28;20225;-77
2023/10/09 08:01:36;;;;;;;5.37;5.03;;;11.00;78.40;;;;;;6308314;28;20271;-81
2023/10/09 08:04:39;;;;;;;5.23;4.90;;;10.90;78.00;;;;;;6317888;28;20257;-78
2023/10/09 08:07:54;;;;;;;5.17;4.87;;;10.90;78.00;;;;;;6302328;28;20366;-80
2023/10/09 08:11:59;;;;;;;5.23;5.03;;;10.90;78.00;;;;;;6311220;28;20245;-80
2023/10/09 08:15:13;;;;;;;5.37;5.07;;;10.90;78.20;;;;;;6294369;28;20232;-78
2023/10/09 08:18:28;;;;;;;6.03;5.60;;;10.80;78.40;;;;;;6307694;28;20240;-79
2023/10/09 08:24:55;;;;;;;5.23;4.93;;;10.90;78.20;;;;;;6280518;28;20242;-83
2023/10/09 08:31:44;;;;;;;5.97;5.57;;;11.00;78.10;;;;;;6278977;28;20703;-82
2023/10/09 08:34:49;;;;;;;6.13;5.70;;;10.90;77.70;;;;;;6281517;28;20848;-81
2023/10/09 08:37:58;;;;;;;5.77;5.37;;;10.80;77.80;;;;;;6282296;28;20275;-81
2023/10/09 08:41:15;;;;;;;5.33;5.10;;;10.80;78.20;;;;;;6286346;28;20240;-82
2023/10/09 08:44:22;;;;;;;5.07;4.87;;;10.80;78.60;;;;;;6279341;28;20241;-82
2023/10/09 08:47:25;;;;;;;6.13;5.67;;;11.00;78.60;;;;;;6278514;28;20241;-82
2023/10/09 08:50:30;;;;;;;5.90;5.53;;;11.00;78.10;;;;;;6293367;28;20237;-81
2023/10/09 08:53:33;;;;;;;6.23;5.70;;;11.10;77.90;;;;;;6269461;28;20233;-84
2023/10/09 08:56:36;;;;;;;6.03;5.63;;;11.10;77.50;;;;;;6271933;28;20233;-81
2023/10/09 08:59:43;;;;;;;6.70;6.10;;;11.10;76.60;;;;;;6286351;28;20288;-82
2023/10/09 09:02:49;;;;;;;5.60;5.30;;;11.10;76.60;;;;;;6292538;28;20241;-83
2023/10/09 09:06:01;;;;;;;6.17;5.20;;;11.10;77.00;;;;;;6289131;28;20242;-83
2023/10/09 09:09:14;;;;;;;6.27;5.77;;;11.10;77.30;;;;;;6288292;28;20237;-84
2023/10/09 09:12:17;;;;;;;5.90;5.60;;;11.10;77.50;;;;;;6285336;28;20257;-79
2023/10/09 09:15:22;;;;;;;5.73;5.43;;;11.10;76.90;;;;;;6284991;28;20312;-83
2023/10/09 09:18:31;;;;;;;6.00;5.60;;;11.20;76.80;;;;;;6281911;28;20288;-82
2023/10/09 09:21:40;;;;;;;5.57;5.23;;;11.20;76.60;;;;;;6289156;28;20264;-82
2023/10/09 09:25:03;;;;;;;5.43;4.70;;;11.30;76.70;;;;;;6292269;28;20796;-83
2023/10/09 09:28:12;;;;;;;6.60;6.07;;;11.30;76.80;;;;;;6286019;28;20608;-80
2023/10/09 09:31:22;;;;;;;6.00;5.50;;;11.50;76.70;;;;;;6284637;28;20237;-80
2023/10/09 09:34:28;;;;;;;5.90;5.50;;;11.50;76.50;;;;;;6280087;28;20238;-82
2023/10/09 09:37:50;;;;;;;5.83;5.43;;;11.60;76.30;;;;;;6289421;28;20249;-84
2023/10/09 09:40:57;;;;;;;6.67;6.13;;;11.70;76.40;;;;;;6285581;28;20234;-80
2023/10/09 09:44:00;;;;;;;6.97;6.53;;;11.70;75.20;;;;;;6278753;28;20242;-82
2023/10/09 09:47:06;;;;;;;6.63;6.20;;;11.70;75.40;;;;;;6270178;28;20238;-79
2023/10/09 09:50:24;;;;;;;6.13;5.57;;;11.70;76.10;;;;;;6288632;28;20257;-82
2023/10/09 09:53:34;;;;;;;6.07;5.57;;;11.70;75.80;;;;;;6292941;28;20226;-81
2023/10/09 09:56:39;;;;;;;5.50;5.17;;;11.70;75.90;;;;;;6294049;28;20321;-80
2023/10/09 09:59:52;;;;;;;6.27;5.83;;;11.70;75.70;;;;;;6297809;28;20263;-82
2023/10/09 10:02:58;;;;;;;6.13;5.63;;;11.70;75.60;;;;;;6294147;28;20247;-82
2023/10/09 10:06:05;;;;;;;8.93;6.47;;;11.70;75.20;;;;;;6290200;28;20783;-83
2023/10/09 10:09:10;;;;;;;5.80;5.50;;;11.40;75.70;;;;;;6293764;28;20756;-80
2023/10/09 10:12:14;;;;;;;6.87;6.13;;;11.40;76.00;;;;;;6290512;28;20624;-82
2023/10/09 10:15:19;;;;;;;6.73;6.27;;;11.40;76.00;;;;;;6292364;28;20234;-84
2023/10/09 10:18:23;;;;;;;6.60;6.20;;;11.40;75.80;;;;;;6288345;28;20807;-79
2023/10/09 10:24:54;;;;;;;6.30;6.00;;;11.40;75.90;;;;;;6274109;28;20976;-81
2023/10/09 10:28:42;;;;;;;7.07;6.50;;;11.40;75.70;;;;;;6286421;28;20298;-81
2023/10/09 10:32:00;;;;;;;6.83;6.23;;;11.50;75.80;;;;;;6269906;28;20637;-85
2023/10/09 10:35:06;;;;;;;7.60;6.97;;;11.50;75.70;;;;;;6289308;28;20233;-85
2023/10/09 10:38:24;;;;;;;6.10;5.50;;;11.70;75.70;;;;;;6284484;28;20245;-81
2023/10/09 10:41:35;;;;;;;6.70;6.30;;;11.70;75.50;;;;;;6288064;28;20236;-78
2023/10/09 10:44:41;;;;;;;6.60;6.10;;;11.70;75.50;;;;;;6288608;28;20233;-79
2023/10/09 10:47:48;;;;;;;8.07;5.93;;;11.70;75.70;;;;;;6281035;28;20229;-83
2023/10/09 10:50:58;;;;;;;6.57;6.07;;;11.90;75.50;;;;;;6282158;28;20229;-82
2023/10/09 10:54:26;;;;;;;6.53;6.03;;;11.90;74.50;;;;;;6281519;28;20264;-81
2023/10/09 10:57:29;;;;;;;6.83;6.33;;;11.90;74.60;;;;;;6271776;28;20237;-78
2023/10/09 11:03:56;;;;;;;7.60;7.00;;;12.10;74.30;;;;;;6286896;28;20741;-80
2023/10/09 11:07:06;;;;;;;6.83;6.33;;;12.10;74.20;;;;;;6286308;28;20242;-80
2023/10/09 11:10:15;;;;;;;6.80;6.30;;;12.10;73.80;;;;;;6279089;28;20229;-80
2023/10/09 11:13:33;;;;;;;6.80;6.40;;;12.10;73.60;;;;;;6286474;28;20737;-82
2023/10/09 11:16:47;;;;;;;9.03;6.53;;;12.00;73.90;;;;;;6282377;28;20241;-80
2023/10/09 11:20:26;;;;;;;6.20;5.90;;;12.10;73.90;;;;;;6273891;28;20233;-82
2023/10/09 11:23:37;;;;;;;7.43;6.73;;;12.20;74.00;;;;;;6289067;28;20241;-81
2023/10/09 11:26:40;;;;;;;7.80;7.10;;;12.40;73.90;;;;;;6294600;28;20232;-82
2023/10/09 11:30:05;;;;;;;7.13;6.60;;;12.30;73.30;;;;;;6292730;28;20233;-80
2023/10/09 11:33:14;;;;;;;6.17;5.87;;;12.40;73.50;;;;;;6291110;28;20236;-80
2023/10/09 11:36:21;;;;;;;7.50;7.00;;;12.50;73.00;;;;;;6282182;28;20660;-82
2023/10/09 11:39:32;;;;;;;7.53;7.13;;;12.50;73.20;;;;;;6283276;28;20259;-81
2023/10/09 11:42:48;;;;;;;7.40;7.10;;;12.30;73.80;;;;;;6282710;28;20249;-83
2023/10/09 11:45:56;;;;;;;8.43;7.83;;;12.50;74.30;;;;;;6281861;28;20241;-81
2023/10/09 11:49:26;;;;;;;8.53;7.73;;;12.50;74.40;;;;;;6275832;28;20245;-83
2023/10/09 11:52:38;;;;;;;7.63;7.20;;;12.70;73.80;;;;;;6274385;28;20247;-82
2023/10/09 11:55:41;;;;;;;8.10;7.40;;;12.80;73.20;;;;;;6259931;28;20234;-81
2023/10/09 11:58:49;;;;;;;8.87;8.20;;;12.80;72.40;;;;;;6280010;28;20237;-82
2023/10/09 12:02:00;;;;;;;8.37;7.73;;;12.80;72.10;;;;;;6278813;28;20229;-82
2023/10/09 12:05:06;;;;;;;7.63;7.13;;;12.70;72.80;;;;;;6284554;28;20364;-79
2023/10/09 12:08:09;;;;;;;8.00;7.40;;;12.90;72.20;;;;;;6287690;28;20935;-81
2023/10/09 12:11:14;;;;;;;7.93;7.23;;;13.10;71.70;;;;;;6281894;28;20239;-85
2023/10/09 12:14:23;;;;;;;8.53;8.03;;;13.20;71.00;;;;;;6277242;28;20322;-82
2023/10/09 12:17:28;;;;;;;9.17;8.53;;;13.10;71.30;;;;;;6289913;28;20370;-82
2023/10/09 12:20:36;;;;;;;9.10;8.40;;;13.10;71.00;;;;;;6287399;28;20233;-80
2023/10/09 12:23:41;;;;;;;8.43;7.63;;;12.90;71.50;;;;;;6278359;28;20315;-80
2023/10/09 12:26:45;;;;;;;9.03;8.20;;;12.90;71.00;;;;;;6287637;28;20233;-80
2023/10/09 12:29:49;;;;;;;8.23;7.73;;;12.90;71.60;;;;;;6287142;28;20230;-83
2023/10/09 12:32:54;;;;;;;8.50;7.80;;;12.90;71.40;;;;;;6273836;28;20234;-81
2023/10/09 12:35:59;;;;;;;8.57;7.97;;;12.90;71.50;;;;;;6289257;28;20226;-82
2023/10/09 12:39:05;;;;;;;8.47;7.87;;;12.80;71.50;;;;;;6284469;28;20241;-81
2023/10/09 12:42:08;;;;;;;9.40;8.70;;;12.70;71.70;;;;;;6285106;28;20237;-83
2023/10/09 12:45:12;;;;;;;8.73;8.13;;;12.70;71.50;;;;;;6284840;28;20317;-80
2023/10/09 12:48:17;;;;;;;9.77;8.80;;;12.70;71.80;;;;;;6283683;28;20236;-82
2023/10/09 12:51:25;;;;;;;9.80;9.10;;;12.50;72.20;;;;;;6289509;28;20247;-83
2023/10/09 12:54:30;;;;;;;10.10;9.30;;;12.40;73.00;;;;;;6286072;28;20319;-81
2023/10/09 12:57:34;;;;;;;10.93;9.83;;;12.50;72.90;;;;;;6283387;28;20308;-81
2023/10/09 13:00:43;;;;;;;10.50;9.90;;;12.50;72.50;;;;;;6279156;28;20248;-84
2023/10/09 13:03:49;;;;;;;11.07;10.03;;;12.50;72.20;;;;;;6286513;28;20273;-83
2023/10/09 13:06:54;;;;;;;14.33;11.50;;;12.50;72.70;;;;;;6279747;28;20243;-79
2023/10/09 13:13:17;;;;;;;12.30;11.23;;;12.30;73.50;;;;;;6278095;28;20233;-80
2023/10/09 13:16:23;;;;;;;14.27;12.87;;;12.30;73.60;;;;;;6276668;28;20248;-81
2023/10/09 13:19:28;;;;;;;11.67;10.70;;;12.20;74.00;;;;;;6287268;28;20237;-78
2023/10/09 13:22:31;;;;;;;11.13;10.07;;;12.10;74.20;;;;;;6289873;28;20379;-81
2023/10/09 13:25:39;;;;;;;11.87;10.97;;;12.20;74.00;;;;;;6276267;28;20250;-80
2023/10/09 13:28:45;;;;;;;11.37;10.37;;;12.30;73.80;;;;;;6284565;28;20238;-81
2023/10/09 13:31:49;;;;;;;12.80;11.70;;;12.30;73.80;;;;;;6289223;28;20244;-81
2023/10/09 13:34:55;;;;;;;11.57;10.47;;;12.20;73.60;;;;;;6280810;28;20801;-84
2023/10/09 13:37:58;;;;;;;15.03;11.50;;;12.20;73.90;;;;;;6286182;28;20324;-80
2023/10/09 13:41:04;;;;;;;12.27;11.27;;;12.10;74.10;;;;;;6276536;28;20225;-79
2023/10/09 13:44:07;;;;;;;11.40;10.20;;;12.00;74.40;;;;;;6277683;28;20233;-81
2023/10/09 13:47:19;;;;;;;11.53;10.40;;;12.10;74.30;;;;;;6277610;28;20263;-80
2023/10/09 13:50:28;;;;;;;10.43;9.77;;;12.10;74.20;;;;;;6289008;28;21076;-79
2023/10/09 13:53:35;;;;;;;12.93;11.90;;;12.10;74.20;;;;;;6288620;28;20226;-85
2023/10/09 13:56:40;;;;;;;12.00;10.90;;;12.00;74.60;;;;;;6292088;28;20302;-80
2023/10/09 13:59:49;;;;;;;12.90;11.70;;;12.00;74.50;;;;;;6260418;28;20236;-81
2023/10/09 14:02:52;;;;;;;11.73;10.80;;;11.90;74.70;;;;;;6281243;28;20425;-81
2023/10/09 14:06:10;;;;;;;11.93;10.83;;;11.90;74.90;;;;;;6286096;28;20767;-81
2023/10/09 14:09:27;;;;;;;12.73;11.53;;;11.90;75.10;;;;;;6277145;28;20296;-77
2023/10/09 14:12:31;;;;;;;11.63;10.73;;;11.90;74.90;;;;;;6280469;28;20356;-81
2023/10/09 14:15:39;;;;;;;12.53;11.53;;;11.90;75.30;;;;;;6277336;28;20317;-83
2023/10/09 14:18:42;;;;;;;12.30;11.20;;;11.90;75.20;;;;;;6277972;28;20264;-83
2023/10/09 14:21:49;;;;;;;12.60;11.50;;;11.90;75.40;;;;;;6278451;28;20245;-80
2023/10/09 14:24:55;;;;;;;11.80;10.77;;;11.90;75.60;;;;;;6284051;28;20247;-81
2023/10/09 14:27:58;;;;;;;12.13;11.03;;;11.90;75.60;;;;;;6288640;28;20261;-81
2023/10/09 14:31:04;;;;;;;12.33;11.20;;;11.90;75.30;;;;;;6281122;28;20256;-83
2023/10/09 14:34:09;;;;;;;12.27;11.17;;;11.90;75.60;;;;;;6284345;28;20367;-82
2023/10/09 14:37:15;;;;;;;10.43;9.53;;;11.90;75.50;;;;;;6285927;28;20232;-81
2023/10/09 14:40:29;;;;;;;11.60;10.57;;;11.90;75.50;;;;;;6286721;28;20397;-82
2023/10/09 14:43:33;;;;;;;11.50;10.50;;;12.00;75.70;;;;;;6287734;28;20238;-81
2023/10/09 14:46:38;;;;;;;12.77;11.60;;;12.00;75.60;;;;;;6287568;28;20247;-81
2023/10/09 14:49:43;;;;;;;13.07;11.87;;;12.00;75.10;;;;;;6292811;28;20323;-79
2023/10/09 14:52:50;;;;;;;12.47;11.47;;;11.90;75.20;;;;;;6286874;28;20693;-80
2023/10/09 14:55:56;;;;;;;12.70;11.50;;;11.90;75.20;;;;;;6278510;28;20256;-80
2023/10/09 14:59:01;;;;;;;11.57;10.63;;;11.90;75.30;;;;;;6280824;28;20234;-83
2023/10/09 15:02:05;;;;;;;11.00;9.90;;;11.90;75.30;;;;;;6282124;28;20320;-80
2023/10/09 15:05:11;;;;;;;10.83;10.00;;;11.90;75.50;;;;;;6289611;28;20240;-80
2023/10/09 15:08:18;;;;;;;11.30;10.37;;;11.90;75.50;;;;;;6284708;28;20283;-82
2023/10/09 15:11:24;;;;;;;11.73;10.53;;;11.90;75.70;;;;;;6283706;28;20233;-81
2023/10/09 15:14:27;;;;;;;12.03;10.77;;;11.90;75.90;;;;;;6270624;28;20260;-83
2023/10/09 15:17:30;;;;;;;9.93;9.13;;;11.90;75.90;;;;;;6289180;28;20954;-79
2023/10/09 15:20:36;;;;;;;12.40;11.33;;;11.90;76.10;;;;;;6298283;28;20301;-80
2023/10/09 15:23:42;;;;;;;12.40;11.03;;;11.80;76.20;;;;;;6286544;28;20245;-80
2023/10/09 15:26:52;;;;;;;13.70;12.23;;;11.70;76.30;;;;;;6286613;28;20244;-83
2023/10/09 15:29:55;;;;;;;11.70;10.70;;;11.70;76.60;;;;;;6284110;28;20229;-82
2023/10/09 15:33:18;;;;;;;11.90;10.90;;;11.70;76.70;;;;;;6278593;28;20254;-75
2023/10/09 15:36:22;;;;;;;12.23;11.10;;;11.70;76.80;;;;;;6282483;28;20229;-79
2023/10/09 15:39:27;;;;;;;13.00;11.77;;;11.70;76.70;;;;;;6284875;28;20244;-81
2023/10/09 15:42:30;;;;;;;12.70;11.60;;;11.60;76.80;;;;;;6278646;28;20236;-82
2023/10/09 15:45:42;;;;;;;10.87;9.83;;;11.60;77.00;;;;;;6280543;28;20244;-80
2023/10/09 15:48:46;;;;;;;11.33;10.17;;;11.60;77.00;;;;;;6283363;28;20234;-81
2023/10/09 15:51:49;;;;;;;13.07;11.77;;;11.50;77.10;;;;;;6278620;28;20245;-81
2023/10/09 15:54:54;;;;;;;11.17;10.27;;;11.60;77.10;;;;;;6268979;28;20241;-82
2023/10/09 15:57:59;;;;;;;12.03;11.10;;;11.50;77.20;;;;;;6276671;28;20244;-80
2023/10/09 16:01:02;;;;;;;12.90;11.80;;;11.50;77.40;;;;;;6281416;28;20737;-82
2023/10/09 16:04:10;;;;;;;13.30;11.87;;;11.50;77.20;;;;;;6283258;28;20233;-82
2023/10/09 16:07:14;;;;;;;12.10;11.10;;;11.50;77.40;;;;;;6274765;28;20257;-81
2023/10/09 16:10:20;;;;;;;12.33;11.13;;;11.50;77.40;;;;;;6274497;28;20229;-81
2023/10/09 16:13:23;;;;;;;13.17;11.97;;;11.40;77.50;;;;;;6285962;28;20656;-79
2023/10/09 16:16:26;;;;;;;12.33;11.30;;;11.40;77.40;;;;;;6281938;28;20240;-80
2023/10/09 16:19:36;;;;;;;11.00;10.20;;;11.40;77.40;;;;;;6280917;28;20293;-81
2023/10/09 16:22:45;;;;;;;11.37;10.37;;;11.40;77.50;;;;;;6282493;28;20616;-81
2023/10/09 16:25:50;;;;;;;11.43;10.47;;;11.40;77.60;;;;;;6277744;28;20669;-80
2023/10/09 16:28:54;;;;;;;10.90;10.00;;;11.30;77.70;;;;;;6270308;28;21173;-84
2023/10/09 16:31:59;;;;;;;9.70;9.10;;;11.40;77.70;;;;;;6266742;28;20237;-82
2023/10/09 16:35:02;;;;;;;9.67;8.97;;;11.30;77.90;;;;;;6273750;28;20339;-81
2023/10/09 16:38:11;;;;;;;9.83;9.13;;;11.30;78.00;;;;;;6282283;28;20239;-85
2023/10/09 16:41:16;;;;;;;10.13;9.53;;;11.30;78.00;;;;;;6275530;28;20881;-83
2023/10/09 16:44:20;;;;;;;10.60;9.83;;;11.30;78.20;;;;;;6275294;28;20332;-80
2023/10/09 16:47:23;;;;;;;10.40;9.70;;;11.20;78.40;;;;;;6272193;28;20226;-80
2023/10/09 16:50:28;;;;;;;13.03;11.63;;;11.20;78.60;;;;;;6281614;28;20827;-82
2023/10/09 16:53:31;;;;;;;12.30;11.20;;;11.10;79.00;;;;;;6282637;28;20719;-81
2023/10/09 16:56:36;;;;;;;11.80;10.80;;;11.10;79.10;;;;;;6284311;28;20725;-82
2023/10/09 16:59:41;;;;;;;11.07;10.27;;;11.10;79.20;;;;;;6275180;28;20845;-81
2023/10/09 17:02:46;;;;;;;12.90;11.80;;;11.10;79.20;;;;;;6288071;28;20234;-84
2023/10/09 17:05:57;;;;;;;12.57;11.57;;;11.10;79.60;;;;;;6284072;28;20233;-81
2023/10/09 17:09:06;;;;;;;12.10;11.00;;;11.10;79.60;;;;;;6278866;28;20648;-80
2023/10/09 17:12:12;;;;;;;11.70;10.80;;;11.00;79.70;;;;;;6284471;28;20816;-81
2023/10/09 17:15:16;;;;;;;12.77;11.73;;;11.00;79.70;;;;;;6284370;28;20334;-78